Time;durP1;ratioP1;P1;durP2;ratioP2;P2;SDS_P1;SDS_P2;PMS_P1;PMS_P2;Temp;Humidity;BMP_temperature;BMP_pressure;BME280_temperature;BME280_humidity;BME280_pressure;Samples;Min_cycle;Max_cycle;Signal;HPM_P1;HPM_P2
2022/06/29 00:00:34;;;;;;;7.82;3.60;;;;;;;;;;4842817;29;20564;-79
2022/06/29 00:03:02;;;;;;;5.90;3.10;;;;;;;;;;4825135;29;20125;-79
2022/06/29 00:05:30;;;;;;;7.05;3.30;;;;;;;;;;4816553;29;20050;-79
2022/06/29 00:07:57;;;;;;;5.15;2.60;;;;;;;;;;4842215;29;20058;-79
2022/06/29 00:10:32;;;;;;;4.68;2.83;;;;;;;;;;4839084;29;20050;-79
2022/06/29 00:12:59;;;;;;;7.22;3.70;;;;;;;;;;4834266;29;20223;-79
2022/06/29 00:15:26;;;;;;;7.22;3.08;;;;;;;;;;4838301;29;20110;-79
2022/06/29 00:17:54;;;;;;;9.63;3.92;;;;;;;;;;4839076;29;20419;-79
2022/06/29 00:20:21;;;;;;;5.78;3.53;;;;;;;;;;4840744;29;20057;-78
2022/06/29 00:22:49;;;;;;;9.38;4.32;;;;;;;;;;4839148;29;20529;-78
2022/06/29 00:25:16;;;;;;;7.15;3.33;;;;;;;;;;4806132;29;20404;-78
2022/06/29 00:27:44;;;;;;;5.95;4.10;;;;;;;;;;4802982;29;20343;-78
2022/06/29 00:30:12;;;;;;;6.20;4.07;;;;;;;;;;4831520;29;20117;-78
2022/06/29 00:32:39;;;;;;;6.28;4.07;;;;;;;;;;4821606;29;20474;-79
2022/06/29 00:35:07;;;;;;;7.43;3.78;;;;;;;;;;4836887;29;20057;-78
2022/06/29 00:37:35;;;;;;;4.65;3.10;;;;;;;;;;4836691;29;20237;-78
2022/06/29 00:40:03;;;;;;;9.30;4.00;;;;;;;;;;4821868;29;20452;-78
2022/06/29 00:42:31;;;;;;;3.63;2.88;;;;;;;;;;4832310;29;20046;-78
2022/06/29 00:44:59;;;;;;;5.03;3.60;;;;;;;;;;4840708;29;20046;-78
2022/06/29 00:47:27;;;;;;;7.03;3.60;;;;;;;;;;4822939;29;20050;-78
2022/06/29 00:49:54;;;;;;;6.63;3.60;;;;;;;;;;4840528;29;20053;-78
2022/06/29 00:52:26;;;;;;;9.75;3.80;;;;;;;;;;4825747;29;20145;-78
2022/06/29 00:54:54;;;;;;;7.78;3.22;;;;;;;;;;4840536;29;20425;-79
2022/06/29 00:57:26;;;;;;;7.10;3.00;;;;;;;;;;4839904;29;20053;-78
2022/06/29 00:59:55;;;;;;;6.68;3.03;;;;;;;;;;4825451;29;20522;-78
2022/06/29 01:02:24;;;;;;;3.60;3.25;;;;;;;;;;4858398;29;20105;-78
2022/06/29 01:04:52;;;;;;;5.20;3.97;;;;;;;;;;4857803;29;20136;-78
2022/06/29 01:07:23;;;;;;;8.82;3.75;;;;;;;;;;4850487;29;20060;-77
2022/06/29 01:09:51;;;;;;;2.78;2.58;;;;;;;;;;4833192;29;20533;-78
2022/06/29 01:12:18;;;;;;;8.40;3.58;;;;;;;;;;4836803;29;20050;-78
2022/06/29 01:14:47;;;;;;;6.68;4.05;;;;;;;;;;4832996;29;20034;-78
2022/06/29 01:17:14;;;;;;;10.13;4.40;;;;;;;;;;4843522;29;20038;-78
2022/06/29 01:19:42;;;;;;;6.32;4.13;;;;;;;;;;4839377;29;20540;-78
2022/06/29 01:22:13;;;;;;;8.63;4.60;;;;;;;;;;4838416;29;20046;-78
2022/06/29 01:24:42;;;;;;;8.27;4.43;;;;;;;;;;4838370;29;20098;-78
2022/06/29 01:27:09;;;;;;;11.40;5.82;;;;;;;;;;4807672;29;20045;-78
2022/06/29 01:29:36;;;;;;;7.80;5.78;;;;;;;;;;4837131;29;20132;-78
2022/06/29 01:32:04;;;;;;;5.75;3.97;;;;;;;;;;4837673;29;20525;-77
2022/06/29 01:34:32;;;;;;;8.00;5.65;;;;;;;;;;4820812;29;20046;-78
2022/06/29 01:37:00;;;;;;;8.32;7.00;;;;;;;;;;4807598;29;20058;-78
2022/06/29 01:39:28;;;;;;;13.57;7.63;;;;;;;;;;4816831;29;20488;-78
2022/06/29 01:41:56;;;;;;;12.23;8.25;;;;;;;;;;4820061;29;20103;-78
2022/06/29 01:44:23;;;;;;;14.90;6.93;;;;;;;;;;4818720;29;20477;-78
2022/06/29 01:46:51;;;;;;;8.20;6.00;;;;;;;;;;4830444;29;20060;-78
2022/06/29 01:49:18;;;;;;;9.15;4.68;;;;;;;;;;4830717;29;20082;-77
2022/06/29 01:51:45;;;;;;;10.50;6.50;;;;;;;;;;4830345;29;20124;-78
2022/06/29 01:54:13;;;;;;;9.27;6.20;;;;;;;;;;4815467;29;20058;-77
2022/06/29 01:56:40;;;;;;;7.90;6.57;;;;;;;;;;4813813;29;20730;-77
2022/06/29 01:59:08;;;;;;;16.38;6.85;;;;;;;;;;4818849;29;20049;-77
2022/06/29 02:01:35;;;;;;;9.02;5.07;;;;;;;;;;4820999;29;20836;-78
2022/06/29 02:04:03;;;;;;;11.65;6.07;;;;;;;;;;4835172;29;20065;-77
2022/06/29 02:09:14;;;;;;;9.60;5.68;;;;;;;;;;4811618;29;20126;-77
2022/06/29 02:11:42;;;;;;;13.40;6.03;;;;;;;;;;4802498;29;20057;-77
2022/06/29 02:14:10;;;;;;;10.52;6.97;;;;;;;;;;4808850;29;20443;-77
2022/06/29 02:16:37;;;;;;;6.35;5.75;;;;;;;;;;4809201;29;20423;-77
2022/06/29 02:19:05;;;;;;;8.95;6.05;;;;;;;;;;4835705;29;20070;-77
2022/06/29 02:21:32;;;;;;;10.00;5.85;;;;;;;;;;4804438;29;20570;-78
2022/06/29 02:24:00;;;;;;;9.60;5.60;;;;;;;;;;4821368;29;20438;-78
2022/06/29 02:26:27;;;;;;;5.25;4.75;;;;;;;;;;4832130;29;20523;-77
2022/06/29 02:28:55;;;;;;;9.43;5.10;;;;;;;;;;4814334;29;20529;-78
2022/06/29 02:36:54;;;;;;;5.80;5.20;;;;;;;;;;4804574;29;20134;-78
2022/06/29 02:39:22;;;;;;;9.85;6.07;;;;;;;;;;4804642;29;20054;-78
2022/06/29 02:41:49;;;;;;;8.02;6.07;;;;;;;;;;4804998;29;20114;-78
2022/06/29 02:44:16;;;;;;;8.07;6.28;;;;;;;;;;4798637;29;20145;-78
2022/06/29 02:46:44;;;;;;;8.68;6.43;;;;;;;;;;4808351;29;20050;-78
2022/06/29 02:49:11;;;;;;;8.10;5.35;;;;;;;;;;4826755;29;20080;-78
2022/06/29 02:51:39;;;;;;;8.02;5.60;;;;;;;;;;4808406;29;20047;-78
2022/06/29 02:54:06;;;;;;;6.90;5.38;;;;;;;;;;4808849;29;20054;-78
2022/06/29 02:56:34;;;;;;;7.10;5.95;;;;;;;;;;4816406;29;20057;-78
2022/06/29 02:59:01;;;;;;;9.52;5.47;;;;;;;;;;4826502;29;20053;-79
2022/06/29 03:01:29;;;;;;;8.10;5.60;;;;;;;;;;4808057;29;20039;-78
2022/06/29 03:03:56;;;;;;;5.72;4.80;;;;;;;;;;4791154;29;20162;-78
2022/06/29 03:06:24;;;;;;;5.47;4.90;;;;;;;;;;4825240;29;20061;-78
2022/06/29 03:08:51;;;;;;;5.25;3.85;;;;;;;;;;4794130;29;20082;-78
2022/06/29 03:11:19;;;;;;;5.63;4.63;;;;;;;;;;4796730;29;20083;-78
2022/06/29 03:13:46;;;;;;;5.90;5.30;;;;;;;;;;4811449;29;20066;-79
2022/06/29 03:16:14;;;;;;;8.50;6.03;;;;;;;;;;4819586;29;20042;-78
2022/06/29 03:18:41;;;;;;;8.80;5.75;;;;;;;;;;4831301;29;20065;-78
2022/06/29 03:21:10;;;;;;;7.93;5.85;;;;;;;;;;4830414;29;20061;-78
2022/06/29 03:23:38;;;;;;;11.18;5.95;;;;;;;;;;4806588;29;20054;-78
2022/06/29 03:26:06;;;;;;;8.60;5.82;;;;;;;;;;4791621;29;20453;-78
2022/06/29 03:28:33;;;;;;;12.93;5.90;;;;;;;;;;4806929;29;20050;-78
2022/06/29 03:31:01;;;;;;;11.90;6.38;;;;;;;;;;4794463;29;20145;-78
2022/06/29 03:33:28;;;;;;;12.07;6.57;;;;;;;;;;4805318;29;20366;-78
2022/06/29 03:35:56;;;;;;;6.72;5.35;;;;;;;;;;4805993;29;20042;-78
2022/06/29 03:38:23;;;;;;;11.20;5.40;;;;;;;;;;4819986;29;20586;-78
2022/06/29 03:40:51;;;;;;;9.95;6.25;;;;;;;;;;4821690;29;20107;-78
2022/06/29 03:43:19;;;;;;;12.38;6.30;;;;;;;;;;4835303;29;20054;-78
2022/06/29 03:45:46;;;;;;;7.95;4.60;;;;;;;;;;4822949;29;20058;-79
2022/06/29 03:48:15;;;;;;;4.68;4.28;;;;;;;;;;4822813;29;20050;-78
2022/06/29 03:50:43;;;;;;;4.95;4.00;;;;;;;;;;4820921;29;20134;-78
2022/06/29 03:53:10;;;;;;;6.93;4.10;;;;;;;;;;4807377;29;20054;-79
2022/06/29 03:55:38;;;;;;;9.50;4.55;;;;;;;;;;4817596;29;20098;-78
2022/06/29 03:58:05;;;;;;;6.75;4.00;;;;;;;;;;4788549;29;20389;-78
2022/06/29 04:00:33;;;;;;;8.30;4.05;;;;;;;;;;4813274;29;20144;-78
2022/06/29 04:03:00;;;;;;;6.13;4.72;;;;;;;;;;4820400;29;20042;-78
2022/06/29 04:05:28;;;;;;;5.72;4.15;;;;;;;;;;4818980;29;20119;-78
2022/06/29 04:07:55;;;;;;;5.18;4.07;;;;;;;;;;4828841;29;20054;-78
2022/06/29 04:10:22;;;;;;;7.70;4.45;;;;;;;;;;4801974;29;20054;-78
2022/06/29 04:12:50;;;;;;;3.63;3.20;;;;;;;;;;4818370;29;20830;-78
2022/06/29 04:15:17;;;;;;;7.22;3.60;;;;;;;;;;4786332;29;20042;-78
2022/06/29 04:17:44;;;;;;;6.57;4.00;;;;;;;;;;4817075;29;20050;-78
2022/06/29 04:21:05;;;;;;;6.57;4.10;;;;;;;;;;4817432;29;20049;-78
2022/06/29 04:23:03;;;;;;;8.32;4.20;;;;;;;;;;4812576;29;20524;-78
2022/06/29 04:25:30;;;;;;;5.40;4.43;;;;;;;;;;4817997;29;20050;-77
2022/06/29 04:27:58;;;;;;;8.40;4.07;;;;;;;;;;4816162;29;20047;-78
2022/06/29 04:30:25;;;;;;;3.80;3.33;;;;;;;;;;4814978;29;20233;-78
2022/06/29 04:32:53;;;;;;;9.65;4.22;;;;;;;;;;4788210;29;20058;-78
2022/06/29 04:35:21;;;;;;;4.40;3.42;;;;;;;;;;4798417;29;20106;-78
2022/06/29 04:37:48;;;;;;;6.93;4.35;;;;;;;;;;4812604;29;20049;-78
2022/06/29 04:40:15;;;;;;;6.40;4.13;;;;;;;;;;4789510;29;20074;-78
2022/06/29 04:42:43;;;;;;;10.18;4.72;;;;;;;;;;4815444;29;20719;-78
2022/06/29 04:48:00;;;;;;;3.03;2.83;;;;;;;;;;4816561;29;20060;-79
2022/06/29 04:50:28;;;;;;;5.55;4.22;;;;;;;;;;4789075;29;20046;-79
2022/06/29 04:52:56;;;;;;;9.77;3.88;;;;;;;;;;4806612;29;20073;-79
2022/06/29 04:55:25;;;;;;;3.28;3.05;;;;;;;;;;4809729;29;20076;-79
2022/06/29 04:57:53;;;;;;;3.47;3.17;;;;;;;;;;4789093;29;20484;-79
2022/06/29 05:00:21;;;;;;;6.57;3.92;;;;;;;;;;4820441;29;20043;-78
2022/06/29 05:02:48;;;;;;;3.67;3.22;;;;;;;;;;4798849;29;20055;-79
2022/06/29 05:05:16;;;;;;;4.72;3.83;;;;;;;;;;4821356;29;20050;-79
2022/06/29 05:07:43;;;;;;;4.68;3.70;;;;;;;;;;4784945;29;20145;-79
2022/06/29 05:10:11;;;;;;;9.32;4.40;;;;;;;;;;4816571;29;20054;-78
2022/06/29 05:12:38;;;;;;;10.30;5.43;;;;;;;;;;4799719;29;20438;-78
2022/06/29 05:15:08;;;;;;;6.00;4.32;;;;;;;;;;4786775;29;20104;-79
2022/06/29 05:17:36;;;;;;;6.03;4.82;;;;;;;;;;4773104;29;20042;-79
2022/06/29 05:20:05;;;;;;;6.95;4.15;;;;;;;;;;4818438;29;20081;-79
2022/06/29 05:22:32;;;;;;;6.68;4.78;;;;;;;;;;4802060;29;20046;-78
2022/06/29 05:25:00;;;;;;;9.02;4.47;;;;;;;;;;4772336;29;20058;-78
2022/06/29 05:27:27;;;;;;;5.55;4.82;;;;;;;;;;4773097;29;20072;-78
2022/06/29 05:29:55;;;;;;;5.53;5.00;;;;;;;;;;4816254;29;20077;-78
2022/06/29 05:32:22;;;;;;;9.45;5.65;;;;;;;;;;4780599;29;20133;-79
2022/06/29 05:34:50;;;;;;;9.82;5.65;;;;;;;;;;4808353;29;20042;-79
2022/06/29 05:37:18;;;;;;;8.48;5.20;;;;;;;;;;4807219;29;20119;-79
2022/06/29 05:39:45;;;;;;;6.45;5.85;;;;;;;;;;4798454;29;20520;-79
2022/06/29 05:42:13;;;;;;;6.45;5.95;;;;;;;;;;4805617;29;20106;-79
2022/06/29 05:44:41;;;;;;;11.20;6.65;;;;;;;;;;4802272;29;20057;-79
2022/06/29 05:47:09;;;;;;;7.20;6.50;;;;;;;;;;4801897;29;20515;-78
2022/06/29 05:49:38;;;;;;;9.30;6.88;;;;;;;;;;4803305;29;20133;-79
2022/06/29 05:52:05;;;;;;;10.70;7.65;;;;;;;;;;4790987;29;20158;-79
2022/06/29 05:54:33;;;;;;;10.15;7.85;;;;;;;;;;4818102;29;20051;-80
2022/06/29 05:57:00;;;;;;;9.48;7.82;;;;;;;;;;4788475;29;20079;-79
2022/06/29 05:59:28;;;;;;;13.05;9.07;;;;;;;;;;4807706;29;20051;-79
2022/06/29 06:01:55;;;;;;;5.97;5.40;;;;;;;;;;4823136;29;20405;-78
2022/06/29 06:04:23;;;;;;;14.65;8.20;;;;;;;;;;4818742;29;20054;-80
2022/06/29 06:06:51;;;;;;;17.27;10.98;;;;;;;;;;4805806;29;20050;-79
2022/06/29 06:09:22;;;;;;;14.68;11.15;;;;;;;;;;4823450;29;20134;-79
2022/06/29 06:11:51;;;;;;;12.10;8.40;;;;;;;;;;4804129;29;20106;-79
2022/06/29 06:14:18;;;;;;;16.55;10.48;;;;;;;;;;4788875;29;20110;-79
2022/06/29 06:16:45;;;;;;;18.80;10.98;;;;;;;;;;4806107;29;20068;-79
2022/06/29 06:19:13;;;;;;;15.52;11.65;;;;;;;;;;4818587;29;20046;-79
2022/06/29 06:21:40;;;;;;;19.52;12.40;;;;;;;;;;4825166;29;20486;-79
2022/06/29 06:24:08;;;;;;;21.17;14.27;;;;;;;;;;4823010;29;20222;-80
2022/06/29 06:26:35;;;;;;;22.13;15.13;;;;;;;;;;4793037;29;20054;-79
2022/06/29 06:29:03;;;;;;;19.35;12.73;;;;;;;;;;4826984;29;20066;-79
2022/06/29 06:31:31;;;;;;;23.48;15.27;;;;;;;;;;4824422;29;20066;-79
2022/06/29 06:33:59;;;;;;;23.98;16.38;;;;;;;;;;4815760;29;20054;-79
2022/06/29 06:36:26;;;;;;;30.48;16.83;;;;;;;;;;4825235;29;20632;-78
2022/06/29 06:38:53;;;;;;;17.42;10.75;;;;;;;;;;4807369;29;20038;-79
2022/06/29 06:41:21;;;;;;;8.93;6.82;;;;;;;;;;4822351;29;20057;-79
2022/06/29 06:43:52;;;;;;;24.67;14.50;;;;;;;;;;4806529;29;20046;-80
2022/06/29 06:46:20;;;;;;;27.15;15.75;;;;;;;;;;4819634;29;20490;-80
2022/06/29 06:48:49;;;;;;;15.13;11.73;;;;;;;;;;4806008;29;20043;-80
2022/06/29 06:51:18;;;;;;;16.48;11.27;;;;;;;;;;4806201;29;20137;-80
2022/06/29 06:53:46;;;;;;;22.75;14.45;;;;;;;;;;4801216;29;20125;-80
2022/06/29 06:56:14;;;;;;;30.48;16.20;;;;;;;;;;4801865;29;20516;-80
2022/06/29 06:58:42;;;;;;;21.48;15.30;;;;;;;;;;4821693;29;20049;-80
2022/06/29 07:01:19;;;;;;;26.08;16.05;;;;;;;;;;4803673;29;20118;-79
2022/06/29 07:03:47;;;;;;;22.13;15.52;;;;;;;;;;4787699;29;20059;-80
2022/06/29 07:06:14;;;;;;;27.92;18.23;;;;;;;;;;4819120;29;20359;-78
2022/06/29 07:08:42;;;;;;;23.33;17.70;;;;;;;;;;4803514;29;20104;-79
2022/06/29 07:11:09;;;;;;;33.50;19.67;;;;;;;;;;4825557;29;20145;-78
2022/06/29 07:13:37;;;;;;;21.83;15.00;;;;;;;;;;4823634;29;20047;-78
2022/06/29 07:16:05;;;;;;;31.92;18.50;;;;;;;;;;4823368;29;20053;-79
2022/06/29 07:18:33;;;;;;;23.58;16.30;;;;;;;;;;4794248;29;20057;-78
2022/06/29 07:21:00;;;;;;;23.88;17.17;;;;;;;;;;4819708;29;20068;-79
2022/06/29 07:23:28;;;;;;;37.40;20.75;;;;;;;;;;4826296;29;20054;-79
2022/06/29 07:25:56;;;;;;;33.25;18.55;;;;;;;;;;4827142;29;20061;-80
2022/06/29 07:28:23;;;;;;;14.80;9.88;;;;;;;;;;4803623;29;20050;-79
2022/06/29 07:30:51;;;;;;;13.95;11.80;;;;;;;;;;4802582;29;20094;-78
2022/06/29 07:33:19;;;;;;;19.45;13.85;;;;;;;;;;4835610;29;20042;-79
2022/06/29 07:35:46;;;;;;;26.35;15.13;;;;;;;;;;4818571;29;20091;-79
2022/06/29 07:38:14;;;;;;;25.92;16.08;;;;;;;;;;4791977;29;20056;-79
2022/06/29 07:40:42;;;;;;;24.42;16.65;;;;;;;;;;4805896;29;20046;-79
2022/06/29 07:43:10;;;;;;;19.60;12.70;;;;;;;;;;4822670;29;20089;-79
2022/06/29 07:45:37;;;;;;;28.20;16.27;;;;;;;;;;4815597;29;20076;-79
2022/06/29 07:48:05;;;;;;;24.50;15.10;;;;;;;;;;4838280;29;20141;-80
2022/06/29 07:50:33;;;;;;;22.40;14.05;;;;;;;;;;4822011;29;20427;-80
2022/06/29 07:53:01;;;;;;;16.85;13.15;;;;;;;;;;4804345;29;20440;-79
2022/06/29 07:55:28;;;;;;;28.52;15.45;;;;;;;;;;4825399;29;20074;-80
2022/06/29 07:57:56;;;;;;;21.58;14.48;;;;;;;;;;4826928;29;20480;-81
2022/06/29 08:00:23;;;;;;;33.30;18.25;;;;;;;;;;4812147;29;20057;-80
2022/06/29 08:02:51;;;;;;;22.35;13.45;;;;;;;;;;4826572;29;20049;-79
2022/06/29 08:05:20;;;;;;;23.60;14.73;;;;;;;;;;4817348;29;20046;-80
2022/06/29 08:07:47;;;;;;;19.45;13.60;;;;;;;;;;4837255;29;20054;-79
2022/06/29 08:10:15;;;;;;;16.83;12.48;;;;;;;;;;4837886;29;20094;-80
2022/06/29 08:12:43;;;;;;;10.13;8.13;;;;;;;;;;4825532;29;20084;-79
2022/06/29 08:15:10;;;;;;;31.13;12.13;;;;;;;;;;4803646;29;20043;-80
2022/06/29 08:17:38;;;;;;;21.95;14.82;;;;;;;;;;4789732;29;20057;-79
2022/06/29 08:20:06;;;;;;;40.25;16.05;;;;;;;;;;4807137;29;20470;-79
2022/06/29 08:22:34;;;;;;;25.33;16.00;;;;;;;;;;4806523;29;20142;-79
2022/06/29 08:25:01;;;;;;;22.15;14.88;;;;;;;;;;4792320;29;20130;-79
2022/06/29 08:27:30;;;;;;;21.80;14.43;;;;;;;;;;4806369;29;20054;-78
2022/06/29 08:30:14;;;;;;;19.00;13.85;;;;;;;;;;4808551;29;20075;-79
2022/06/29 08:32:43;;;;;;;24.98;15.40;;;;;;;;;;4808289;29;20079;-80
2022/06/29 08:35:15;;;;;;;17.60;13.07;;;;;;;;;;4810279;29;20047;-79
2022/06/29 08:37:42;;;;;;;;;;;;;;;;;;4821243;29;20532;-79
2022/06/29 08:40:11;;;;;;;21.50;13.82;;;;;;;;;;4823415;29;20098;-79
2022/06/29 08:42:38;;;;;;;13.70;9.65;;;;;;;;;;4826363;29;20077;-79
2022/06/29 08:45:06;;;;;;;17.58;11.00;;;;;;;;;;4830798;29;20080;-79
2022/06/29 08:47:34;;;;;;;13.82;10.50;;;;;;;;;;4837550;29;20070;-79
2022/06/29 08:50:06;;;;;;;18.48;11.60;;;;;;;;;;4805367;29;20684;-79
2022/06/29 08:52:35;;;;;;;24.85;13.73;;;;;;;;;;4821560;29;20046;-79
2022/06/29 08:55:04;;;;;;;18.25;12.45;;;;;;;;;;4797825;29;20054;-79
2022/06/29 08:57:35;;;;;;;16.65;11.52;;;;;;;;;;4812884;29;20074;-79
2022/06/29 09:00:02;;;;;;;14.50;10.80;;;;;;;;;;4817537;29;20052;-81
2022/06/29 09:02:30;;;;;;;19.55;12.07;;;;;;;;;;4822911;29;20311;-80
2022/06/29 09:04:58;;;;;;;16.38;11.73;;;;;;;;;;4788306;29;20477;-79
2022/06/29 09:07:26;;;;;;;17.77;12.15;;;;;;;;;;4804447;29;20070;-80
2022/06/29 09:09:58;;;;;;;14.65;10.55;;;;;;;;;;4797157;29;20086;-79
2022/06/29 09:12:26;;;;;;;14.95;10.23;;;;;;;;;;4821249;29;20054;-79
2022/06/29 09:14:53;;;;;;;14.20;10.95;;;;;;;;;;4821807;29;20085;-80
2022/06/29 09:17:21;;;;;;;16.17;11.50;;;;;;;;;;4821108;29;20107;-79
2022/06/29 09:19:49;;;;;;;19.02;13.15;;;;;;;;;;4824148;29;20061;-80
2022/06/29 09:22:25;;;;;;;27.42;14.23;;;;;;;;;;4818659;29;20058;-80
2022/06/29 09:24:53;;;;;;;17.88;11.45;;;;;;;;;;4820429;29;20061;-79
2022/06/29 09:27:44;;;;;;;19.55;13.10;;;;;;;;;;4813727;29;20070;-79
2022/06/29 09:30:25;;;;;;;16.00;11.85;;;;;;;;;;4802893;29;20073;-79
2022/06/29 09:33:06;;;;;;;20.77;12.27;;;;;;;;;;4827799;29;20050;-80
2022/06/29 09:35:34;;;;;;;21.85;13.95;;;;;;;;;;4827912;29;20042;-79
2022/06/29 09:38:20;;;;;;;19.77;12.63;;;;;;;;;;4822323;29;20054;-79
2022/06/29 09:40:57;;;;;;;20.75;11.10;;;;;;;;;;4799446;29;20046;-78
2022/06/29 09:43:25;;;;;;;9.80;8.05;;;;;;;;;;4825023;29;20047;-80
2022/06/29 09:45:54;;;;;;;14.05;10.07;;;;;;;;;;4825632;29;20046;-80
2022/06/29 09:48:23;;;;;;;9.60;7.50;;;;;;;;;;4837456;29;20055;-79
2022/06/29 09:50:52;;;;;;;15.38;9.63;;;;;;;;;;4828370;29;20515;-80
2022/06/29 09:53:28;;;;;;;9.65;8.10;;;;;;;;;;4810239;29;20054;-79
2022/06/29 09:55:56;;;;;;;13.27;9.20;;;;;;;;;;4826986;29;20073;-79
2022/06/29 09:58:32;;;;;;;12.20;8.45;;;;;;;;;;4824606;29;20076;-80
2022/06/29 10:03:49;;;;;;;10.18;6.50;;;;;;;;;;4809000;29;20054;-78
2022/06/29 10:06:17;;;;;;;6.90;6.20;;;;;;;;;;4811135;29;20508;-79
2022/06/29 10:08:46;;;;;;;7.07;6.28;;;;;;;;;;4826954;29;20050;-79
2022/06/29 10:14:08;;;;;;;6.63;5.85;;;;;;;;;;4815118;29;20050;-79
2022/06/29 10:16:40;;;;;;;12.43;8.88;;;;;;;;;;4825759;29;20393;-80
2022/06/29 10:19:07;;;;;;;;;;;;;;;;;;4807469;29;20057;-80
2022/06/29 10:21:35;;;;;;;6.25;5.38;;;;;;;;;;4826345;29;19928;-79
2022/06/29 10:24:03;;;;;;;5.97;5.10;;;;;;;;;;4823645;29;20046;-80
2022/06/29 10:26:32;;;;;;;7.75;4.50;;;;;;;;;;4819194;29;20077;-80
2022/06/29 10:29:06;;;;;;;7.55;6.75;;;;;;;;;;4821894;29;20050;-79
2022/06/29 10:32:03;;;;;;;7.95;6.47;;;;;;;;;;4823170;29;20050;-79
2022/06/29 10:34:30;;;;;;;7.47;6.20;;;;;;;;;;4809722;29;20072;-79
2022/06/29 10:37:06;;;;;;;5.65;5.00;;;;;;;;;;4810006;29;20141;-80
2022/06/29 10:39:45;;;;;;;7.63;4.68;;;;;;;;;;4818768;29;20465;-79
2022/06/29 10:45:09;;;;;;;6.28;4.90;;;;;;;;;;4818174;29;20051;-80
2022/06/29 10:47:39;;;;;;;8.52;5.40;;;;;;;;;;4808505;29;20649;-79
2022/06/29 10:50:28;;;;;;;6.65;4.82;;;;;;;;;;4820447;29;20050;-78
2022/06/29 10:52:57;;;;;;;3.97;3.60;;;;;;;;;;4804086;29;20149;-79
2022/06/29 10:55:25;;;;;;;5.00;4.50;;;;;;;;;;4804695;29;20133;-79
2022/06/29 10:57:53;;;;;;;5.03;4.35;;;;;;;;;;4821092;29;20046;-78
2022/06/29 11:00:25;;;;;;;5.82;4.28;;;;;;;;;;4805169;29;20085;-78
2022/06/29 11:02:53;;;;;;;5.78;4.28;;;;;;;;;;4805498;29;20115;-78
2022/06/29 11:05:20;;;;;;;7.55;4.95;;;;;;;;;;4806655;29;20469;-79
2022/06/29 11:13:27;;;;;;;7.00;4.30;;;;;;;;;;4824636;29;20074;-78
2022/06/29 11:15:55;;;;;;;4.90;4.00;;;;;;;;;;4808727;29;20095;-79
2022/06/29 11:18:32;;;;;;;4.95;4.38;;;;;;;;;;4824390;29;20084;-79
2022/06/29 11:21:04;;;;;;;5.22;3.65;;;;;;;;;;4825880;29;20039;-79
2022/06/29 11:23:35;;;;;;;5.30;4.05;;;;;;;;;;4823755;29;21200;-79
2022/06/29 11:26:05;;;;;;;7.50;4.47;;;;;;;;;;4821307;29;20537;-78
2022/06/29 11:28:36;;;;;;;4.57;3.88;;;;;;;;;;4817319;29;20054;-79
2022/06/29 11:31:08;;;;;;;5.32;3.78;;;;;;;;;;4825479;29;20054;-79
2022/06/29 11:33:43;;;;;;;3.72;3.50;;;;;;;;;;4791062;29;20050;-80
2022/06/29 11:36:14;;;;;;;8.73;4.63;;;;;;;;;;4815150;29;20460;-78
2022/06/29 11:38:43;;;;;;;4.43;4.03;;;;;;;;;;4820693;29;20050;-79
2022/06/29 11:41:12;;;;;;;7.55;4.57;;;;;;;;;;4814660;29;20054;-79
2022/06/29 11:44:04;;;;;;;4.88;4.20;;;;;;;;;;4819342;29;20055;-81
2022/06/29 11:46:38;;;;;;;5.80;4.55;;;;;;;;;;4809613;29;20046;-79
2022/06/29 11:51:58;;;;;;;5.10;4.50;;;;;;;;;;4820365;29;20084;-80
2022/06/29 11:54:44;;;;;;;7.60;4.25;;;;;;;;;;4806469;29;22623;-79
2022/06/29 11:57:15;;;;;;;4.47;4.05;;;;;;;;;;4810856;29;20796;-79
2022/06/29 11:59:45;;;;;;;4.15;3.70;;;;;;;;;;4794847;29;20058;-79
2022/06/29 12:02:16;;;;;;;5.45;4.03;;;;;;;;;;4815042;29;20054;-78
2022/06/29 12:04:45;;;;;;;8.25;4.60;;;;;;;;;;4814937;29;20084;-78
2022/06/29 12:07:17;;;;;;;4.80;3.95;;;;;;;;;;4789980;29;20492;-78
2022/06/29 12:09:45;;;;;;;10.93;4.65;;;;;;;;;;4822956;29;20051;-80
2022/06/29 12:12:15;;;;;;;4.32;3.67;;;;;;;;;;4816573;29;20069;-78
2022/06/29 12:14:43;;;;;;;6.50;4.38;;;;;;;;;;4819413;29;20042;-78
2022/06/29 12:17:11;;;;;;;6.18;4.45;;;;;;;;;;4812601;29;20118;-78
2022/06/29 12:19:39;;;;;;;6.47;4.40;;;;;;;;;;4822886;29;20061;-80
2022/06/29 12:22:07;;;;;;;5.05;4.55;;;;;;;;;;4818888;29;20412;-80
2022/06/29 12:24:34;;;;;;;9.35;4.75;;;;;;;;;;4823863;29;20050;-80
2022/06/29 12:27:04;;;;;;;4.95;4.35;;;;;;;;;;4787167;29;20062;-80
2022/06/29 12:29:31;;;;;;;6.97;4.28;;;;;;;;;;4796107;29;20061;-79
2022/06/29 12:31:59;;;;;;;5.80;3.92;;;;;;;;;;4819273;29;20058;-80
2022/06/29 12:34:26;;;;;;;10.23;4.20;;;;;;;;;;4802018;29;20054;-80
2022/06/29 12:36:57;;;;;;;5.28;3.80;;;;;;;;;;4822593;29;20080;-80
2022/06/29 12:39:24;;;;;;;6.30;3.80;;;;;;;;;;4810247;29;20053;-80
2022/06/29 12:41:53;;;;;;;5.05;3.47;;;;;;;;;;4806170;29;20325;-79
2022/06/29 12:44:20;;;;;;;4.55;3.70;;;;;;;;;;4830223;29;20046;-79
2022/06/29 12:46:48;;;;;;;6.03;3.42;;;;;;;;;;4836664;29;20129;-79
2022/06/29 12:49:15;;;;;;;4.18;3.70;;;;;;;;;;4818053;29;20042;-79
2022/06/29 12:51:42;;;;;;;6.05;3.75;;;;;;;;;;4804342;29;20055;-78
2022/06/29 12:54:10;;;;;;;6.07;3.50;;;;;;;;;;4814073;29;20066;-79
2022/06/29 12:56:38;;;;;;;5.90;3.70;;;;;;;;;;4791355;29;20126;-79
2022/06/29 12:59:05;;;;;;;5.90;3.53;;;;;;;;;;4800302;29;20050;-79
2022/06/29 13:01:34;;;;;;;3.83;3.35;;;;;;;;;;4819534;29;20047;-80
2022/06/29 13:04:03;;;;;;;5.65;3.50;;;;;;;;;;4816114;29;20150;-79
2022/06/29 13:06:31;;;;;;;8.00;4.05;;;;;;;;;;4811215;29;20461;-79
2022/06/29 13:08:58;;;;;;;6.32;3.83;;;;;;;;;;4797587;29;20052;-79
2022/06/29 13:11:26;;;;;;;4.60;3.75;;;;;;;;;;4808966;29;20050;-79
2022/06/29 13:13:57;;;;;;;5.60;4.10;;;;;;;;;;4821035;29;20076;-79
2022/06/29 13:16:27;;;;;;;;;;;;;;;;;;4818744;29;20081;-79
2022/06/29 13:18:55;;;;;;;6.82;3.70;;;;;;;;;;4804372;29;20386;-79
2022/06/29 13:21:22;;;;;;;9.18;4.70;;;;;;;;;;4800465;29;20079;-78
2022/06/29 13:23:50;;;;;;;4.40;3.97;;;;;;;;;;4803452;29;20157;-79
2022/06/29 13:26:18;;;;;;;4.47;3.75;;;;;;;;;;4795905;29;20054;-79
2022/06/29 13:28:45;;;;;;;9.00;3.83;;;;;;;;;;4805562;29;20075;-79
2022/06/29 13:31:13;;;;;;;4.22;3.83;;;;;;;;;;4819411;29;20050;-78
2022/06/29 13:33:41;;;;;;;5.65;4.22;;;;;;;;;;4797097;29;20053;-80
2022/06/29 13:36:08;;;;;;;5.15;4.40;;;;;;;;;;4806105;29;20039;-79
2022/06/29 13:38:36;;;;;;;6.70;3.85;;;;;;;;;;4790716;29;20051;-79
2022/06/29 13:41:03;;;;;;;6.90;4.40;;;;;;;;;;4802212;29;20062;-80
2022/06/29 13:43:30;;;;;;;4.72;4.22;;;;;;;;;;4802668;29;20118;-80
2022/06/29 13:45:58;;;;;;;6.35;4.00;;;;;;;;;;4815277;29;20054;-80
2022/06/29 13:48:25;;;;;;;4.32;3.63;;;;;;;;;;4800845;29;20120;-80
2022/06/29 13:50:53;;;;;;;6.47;4.13;;;;;;;;;;4779270;29;20081;-80
2022/06/29 13:53:21;;;;;;;4.32;3.97;;;;;;;;;;4822227;29;20092;-79
2022/06/29 13:55:48;;;;;;;4.40;4.00;;;;;;;;;;4784365;29;20042;-79
2022/06/29 13:58:18;;;;;;;8.27;4.25;;;;;;;;;;4812813;29;20409;-80
2022/06/29 14:00:46;;;;;;;4.15;3.42;;;;;;;;;;4801372;29;20396;-79
2022/06/29 14:03:14;;;;;;;6.18;4.15;;;;;;;;;;4818985;29;20158;-77
2022/06/29 14:05:42;;;;;;;6.55;4.13;;;;;;;;;;4817497;29;20062;-79
2022/06/29 14:08:10;;;;;;;6.15;4.03;;;;;;;;;;4792258;29;21163;-79
2022/06/29 14:10:59;;;;;;;5.35;4.20;;;;;;;;;;4873617;24;20044;-76
2022/06/29 14:13:26;;;;;;;5.63;3.75;;;;;;;;;;4854448;29;20105;-75
2022/06/29 14:15:54;;;;;;;8.77;4.20;;;;;;;;;;4849811;29;20109;-75
2022/06/29 14:18:22;;;;;;;5.13;3.80;;;;;;;;;;4827559;29;20538;-75
2022/06/29 14:20:50;;;;;;;6.03;4.13;;;;;;;;;;4826980;29;20199;-77
2022/06/29 14:23:17;;;;;;;4.70;3.80;;;;;;;;;;4829324;29;20037;-76
2022/06/29 14:25:45;;;;;;;5.97;3.70;;;;;;;;;;4821652;29;20053;-77
2022/06/29 14:28:12;;;;;;;7.18;3.55;;;;;;;;;;4834333;29;20550;-77
2022/06/29 14:30:40;;;;;;;7.55;3.50;;;;;;;;;;4821918;29;20557;-77
2022/06/29 14:33:07;;;;;;;4.13;3.55;;;;;;;;;;4823303;29;20117;-77
2022/06/29 14:35:35;;;;;;;6.75;3.50;;;;;;;;;;4827311;29;20407;-77
2022/06/29 14:38:03;;;;;;;4.88;3.53;;;;;;;;;;4810776;29;20472;-78
2022/06/29 14:40:34;;;;;;;7.70;3.40;;;;;;;;;;4824052;29;20201;-77
2022/06/29 14:43:02;;;;;;;3.75;3.30;;;;;;;;;;4831282;29;21008;-78
2022/06/29 14:45:30;;;;;;;3.90;3.50;;;;;;;;;;4825144;29;20054;-76
2022/06/29 14:47:57;;;;;;;6.35;3.90;;;;;;;;;;4831815;29;20056;-77
2022/06/29 14:50:24;;;;;;;3.85;3.25;;;;;;;;;;4827465;29;20045;-77
2022/06/29 14:52:52;;;;;;;6.10;3.65;;;;;;;;;;4832800;29;20049;-77
2022/06/29 14:55:20;;;;;;;5.55;3.63;;;;;;;;;;4835720;29;20506;-77
2022/06/29 14:57:48;;;;;;;4.20;3.53;;;;;;;;;;4839821;29;20163;-77
2022/06/29 15:00:16;;;;;;;8.07;3.50;;;;;;;;;;4836027;29;20048;-77
2022/06/29 15:02:43;;;;;;;9.18;4.07;;;;;;;;;;4820898;29;20164;-77
2022/06/29 15:05:11;;;;;;;4.57;3.30;;;;;;;;;;4828722;29;20349;-77
2022/06/29 15:07:38;;;;;;;6.85;3.70;;;;;;;;;;4837669;29;20102;-77
2022/06/29 15:10:06;;;;;;;5.53;4.07;;;;;;;;;;4836275;29;20048;-77
2022/06/29 15:12:36;;;;;;;8.80;4.40;;;;;;;;;;4810149;29;20052;-77